Current | Forecast
Updated: 1:00 PM JST on June 23, 2017
Observed at Osaka Airport, Japan
Temperature 88°F
Humidity 35%
Dew Point 57°F
Wind ENE at 6 mph
Pressure 29.71 in (Falling)
Conditions Partly Cloudy
Visibility 6.2 miles
UV 12 out of 16
Clouds (FEW) : 3500 ft
Yesterday's Maximum 82°F
Yesterday's Minimum 66°F approx.
Yesterday's Cooling Degree Days 9 approx.
Sunrise4:44 AM JST
Sunset7:14 PM JST
Moon Rise3:50 AM JST
Moon Set6:08 PM JST
Moon PhaseMoon Phase
Waning Crescent
Raw METARMETAR RJOO 230400Z 07005KT 030V120 9999 FEW035 31/14 Q1006 RMK 1CU035 A2971


Monday
. High: 80° F.
Tuesday
. High: 77° F.
Wednesday
. High: 75° F.
Thursday
. High: 77° F.
Friday
. High: 84° F.
Saturday
. High: 80° F.
Sunday
. High: 84° F.
Monday
. High: 82° F.

Units: English | Metric

Find the Weather for any City, State or Zipcode, or Country:

U.S. State List | Severe Weather | Tropical Storms | Ski Conditions
United States | Canada | Central America | South America | Asia | Europe | Australia | Africa | Islands

Weather Underground

© Copyright 2017
The Weather Company, LLC